Time;durP1;ratioP1;P1;durP2;ratioP2;P2;SDS_P1;SDS_P2;PMS_P1;PMS_P2;Temp;Humidity;BMP_temperature;BMP_pressure;BME280_temperature;BME280_humidity;BME280_pressure;Samples;Min_cycle;Max_cycle;Signal;HPM_P1;HPM_P2
2022/11/13 00:00:32;;;;;;;143.60;13.17;;;4.70;77.80;;;;;;5084296;27;45891;-68
2022/11/13 00:02:57;;;;;;;91.17;13.80;;;4.70;77.00;;;;;;5086945;27;46613;-68
2022/11/13 00:05:23;;;;;;;106.77;12.97;;;4.70;77.80;;;;;;5087390;27;46563;-69
2022/11/13 00:07:49;;;;;;;146.47;14.90;;;4.80;77.50;;;;;;5083369;27;47296;-67
2022/11/13 00:10:15;;;;;;;104.20;14.90;;;4.80;77.40;;;;;;5086981;27;46428;-67
2022/11/13 00:12:40;;;;;;;131.00;16.10;;;4.90;76.10;;;;;;5083299;27;46401;-67
2022/11/13 00:15:06;;;;;;;121.43;16.83;;;4.90;77.00;;;;;;5084719;27;46462;-70
2022/11/13 00:17:32;;;;;;;162.67;16.70;;;4.80;77.00;;;;;;5084597;27;47627;-69
2022/11/13 00:19:57;;;;;;;154.20;17.43;;;5.00;76.70;;;;;;5079064;27;46412;-69
2022/11/13 00:22:23;;;;;;;134.33;15.47;;;5.00;75.70;;;;;;5080426;27;45873;-67
2022/11/13 00:24:48;;;;;;;170.23;18.30;;;5.00;76.80;;;;;;5085905;27;46455;-67
2022/11/13 00:27:14;;;;;;;116.40;17.03;;;5.00;76.50;;;;;;5077859;27;46491;-67
2022/11/13 00:29:40;;;;;;;122.60;16.73;;;5.10;76.50;;;;;;5083325;27;45742;-67
2022/11/13 00:32:05;;;;;;;142.47;15.87;;;5.10;75.10;;;;;;5078068;27;46505;-69
2022/11/13 00:34:31;;;;;;;109.37;16.57;;;5.10;76.20;;;;;;5085454;27;46444;-68
2022/11/13 00:36:57;;;;;;;110.43;15.47;;;5.20;76.10;;;;;;5086007;27;46520;-67
2022/11/13 00:39:22;;;;;;;53.37;15.00;;;5.20;76.00;;;;;;5083434;27;46389;-68
2022/11/13 00:41:48;;;;;;;54.80;15.77;;;5.20;76.30;;;;;;5088600;27;45952;-66
2022/11/13 00:44:13;;;;;;;168.53;16.90;;;5.30;75.90;;;;;;5086505;27;46681;-67
2022/11/13 00:46:39;;;;;;;77.07;15.13;;;5.30;75.80;;;;;;5085366;27;46507;-67
2022/11/13 00:49:04;;;;;;;137.20;17.10;;;5.30;76.30;;;;;;5084814;27;46308;-67
2022/11/13 00:51:30;;;;;;;135.90;16.60;;;5.30;75.30;;;;;;5085536;27;46392;-70
2022/11/13 00:53:56;;;;;;;101.10;14.87;;;5.20;76.30;;;;;;5085172;27;46688;-68
2022/11/13 00:56:22;;;;;;;89.37;17.20;;;5.10;76.80;;;;;;5084827;27;47363;-67
2022/11/13 00:58:47;;;;;;;136.50;16.83;;;5.10;77.10;;;;;;5082498;27;46457;-67
2022/11/13 01:01:15;;;;;;;81.70;17.40;;;5.20;75.70;;;;;;5091950;27;47196;-67
2022/11/13 01:03:41;;;;;;;50.13;13.93;;;5.20;76.70;;;;;;5084917;27;46471;-70
2022/11/13 01:06:19;;;;;;;120.40;15.70;;;5.20;77.00;;;;;;5083399;27;46398;-68
2022/11/13 01:08:45;;;;;;;74.57;15.80;;;5.20;76.80;;;;;;5089945;27;45944;-68
2022/11/13 01:11:15;;;;;;;77.03;14.70;;;5.20;76.10;;;;;;5087672;27;46514;-68
2022/11/13 01:13:43;;;;;;;98.70;15.03;;;5.30;76.00;;;;;;5086565;27;46888;-68
2022/11/13 01:16:11;;;;;;;78.43;15.17;;;5.30;77.00;;;;;;5087471;27;46427;-67
2022/11/13 01:18:36;;;;;;;79.97;17.33;;;5.30;76.90;;;;;;5088019;27;46434;-67
2022/11/13 01:21:07;;;;;;;89.40;15.77;;;5.30;77.00;;;;;;5087498;27;46495;-68
2022/11/13 01:23:35;;;;;;;116.10;16.90;;;5.30;75.90;;;;;;5089421;27;46570;-68
2022/11/13 01:26:13;;;;;;;87.97;15.80;;;5.30;77.10;;;;;;5084543;27;46419;-67
2022/11/13 01:28:39;;;;;;;79.00;15.80;;;5.30;77.20;;;;;;5116785;27;46576;-67
2022/11/13 01:31:11;;;;;;;76.43;17.10;;;5.30;76.00;;;;;;5088173;27;46369;-68
2022/11/13 01:33:37;;;;;;;87.33;15.07;;;5.30;77.00;;;;;;5089402;27;46512;-69
2022/11/13 01:36:05;;;;;;;120.90;15.00;;;5.40;76.90;;;;;;5087402;27;49011;-67
2022/11/13 01:38:31;;;;;;;79.33;15.43;;;5.40;76.60;;;;;;5087456;27;46415;-67
2022/11/13 01:40:57;;;;;;;87.67;14.73;;;5.40;76.90;;;;;;5088986;27;46578;-67
2022/11/13 01:43:26;;;;;;;77.90;16.07;;;5.30;75.90;;;;;;5080899;27;46356;-67
2022/11/13 01:45:58;;;;;;;103.83;16.07;;;5.40;77.10;;;;;;5084923;27;46489;-68
2022/11/13 01:48:53;;;;;;;123.77;16.50;;;5.50;76.70;;;;;;5088613;27;46432;-67
2022/11/13 01:51:36;;;;;;;104.07;15.30;;;5.50;75.70;;;;;;5083891;27;46602;-69
2022/11/13 01:54:31;;;;;;;145.53;16.13;;;5.50;76.70;;;;;;5080504;27;47427;-66
2022/11/13 01:56:57;;;;;;;118.27;16.80;;;5.40;76.80;;;;;;5044141;27;47993;-68
2022/11/13 01:59:31;;;;;;;134.77;16.63;;;5.40;77.00;;;;;;5086398;27;46317;-70
2022/11/13 02:01:57;;;;;;;97.53;16.20;;;5.30;76.40;;;;;;5086877;27;46456;-67
2022/11/13 02:04:23;;;;;;;108.40;15.70;;;5.30;78.80;;;;;;5086494;27;46666;-67
2022/11/13 02:06:58;;;;;;;119.47;16.33;;;5.30;77.40;;;;;;5088334;27;46529;-67
2022/11/13 02:09:26;;;;;;;153.60;16.90;;;5.30;77.50;;;;;;5087320;27;46996;-67
2022/11/13 02:11:53;;;;;;;133.67;17.37;;;5.20;76.70;;;;;;5087348;27;46394;-67
2022/11/13 02:14:22;;;;;;;61.60;14.40;;;5.20;77.80;;;;;;5085720;27;46073;-66
2022/11/13 02:16:52;;;;;;;91.13;15.73;;;5.30;77.60;;;;;;5086373;27;46482;-66
2022/11/13 02:19:34;;;;;;;136.63;17.70;;;5.40;77.20;;;;;;5086426;27;46366;-68
2022/11/13 02:22:18;;;;;;;99.97;15.50;;;5.30;76.40;;;;;;5086834;27;46397;-67
2022/11/13 02:24:45;;;;;;;76.60;15.20;;;5.30;77.40;;;;;;5086998;27;46513;-66
2022/11/13 02:27:28;;;;;;;83.00;15.40;;;5.30;77.30;;;;;;5086807;27;46382;-67
2022/11/13 02:29:53;;;;;;;76.23;15.37;;;5.30;77.40;;;;;;5084529;27;46404;-68
2022/11/13 02:32:19;;;;;;;67.47;14.87;;;5.30;76.40;;;;;;5084413;27;46364;-69
2022/11/13 02:34:44;;;;;;;83.20;15.60;;;5.30;77.60;;;;;;5087971;27;46398;-67
2022/11/13 02:37:10;;;;;;;75.33;15.17;;;5.30;77.60;;;;;;5083403;27;48191;-68
2022/11/13 02:39:36;;;;;;;86.87;14.63;;;5.30;77.60;;;;;;5086253;27;45904;-69
2022/11/13 02:42:01;;;;;;;67.67;14.97;;;5.30;76.40;;;;;;5086472;27;46365;-67
2022/11/13 02:44:27;;;;;;;44.43;14.40;;;5.30;77.60;;;;;;5083585;27;46573;-69
2022/11/13 02:46:53;;;;;;;52.03;15.73;;;5.10;77.70;;;;;;5082358;27;46548;-67
2022/11/13 02:49:18;;;;;;;62.33;14.70;;;5.20;78.00;;;;;;5089265;27;46410;-69
2022/11/13 02:51:44;;;;;;;57.47;14.77;;;5.10;77.20;;;;;;5082257;27;46492;-67
2022/11/13 02:54:09;;;;;;;86.23;13.90;;;5.10;78.40;;;;;;5083858;27;46619;-67
2022/11/13 02:56:35;;;;;;;54.37;14.77;;;5.10;78.10;;;;;;5085587;27;46464;-68
2022/11/13 02:59:00;;;;;;;54.03;12.40;;;5.10;78.30;;;;;;5079389;27;46338;-67
2022/11/13 03:01:26;;;;;;;46.40;12.10;;;5.10;77.60;;;;;;5086346;27;46779;-69
2022/11/13 03:03:52;;;;;;;59.93;12.37;;;5.00;78.50;;;;;;5083286;27;46474;-66
2022/11/13 03:06:17;;;;;;;60.43;15.13;;;4.90;78.50;;;;;;5085226;27;46664;-68
2022/11/13 03:08:43;;;;;;;99.40;13.50;;;4.90;78.50;;;;;;5085779;27;46395;-66
2022/11/13 03:11:10;;;;;;;64.37;13.30;;;4.80;77.60;;;;;;5086256;27;46472;-69
2022/11/13 03:13:36;;;;;;;39.50;12.27;;;4.90;78.70;;;;;;5087619;27;46451;-68
2022/11/13 03:16:13;;;;;;;95.97;13.60;;;4.90;78.40;;;;;;5081780;27;46525;-69
2022/11/13 03:18:39;;;;;;;89.70;14.55;;;4.90;78.00;;;;;;5085673;27;46396;-67
2022/11/13 03:21:07;;;;;;;75.73;13.17;;;4.90;77.00;;;;;;5085094;27;46295;-67
2022/11/13 03:23:33;;;;;;;101.67;15.10;;;4.90;77.00;;;;;;5081088;27;46582;-69
2022/11/13 03:26:07;;;;;;;49.63;13.23;;;4.90;78.10;;;;;;5082089;27;46906;-67
2022/11/13 03:28:33;;;;;;;80.90;15.30;;;4.90;77.80;;;;;;5086148;27;46537;-69
2022/11/13 03:30:59;;;;;;;65.63;14.67;;;4.90;77.70;;;;;;5084832;27;46339;-69
2022/11/13 03:33:25;;;;;;;53.60;12.67;;;4.90;76.70;;;;;;5080232;27;46667;-69
2022/11/13 03:35:50;;;;;;;58.37;16.40;;;5.00;77.70;;;;;;5078753;27;46669;-69
2022/11/13 03:38:16;;;;;;;73.63;13.70;;;5.10;77.50;;;;;;5084904;27;46318;-69
2022/11/13 03:40:43;;;;;;;103.13;17.63;;;5.10;77.00;;;;;;5084274;27;46452;-67
2022/11/13 03:43:08;;;;;;;45.50;12.93;;;5.20;75.80;;;;;;5086482;27;46662;-69
2022/11/13 03:45:34;;;;;;;59.60;13.47;;;5.20;76.80;;;;;;5080404;27;46646;-66
2022/11/13 03:48:00;;;;;;;60.97;12.57;;;5.20;76.90;;;;;;5080992;27;46391;-67
2022/11/13 03:50:25;;;;;;;71.77;13.23;;;5.20;77.00;;;;;;5083315;27;46452;-69
2022/11/13 03:52:52;;;;;;;129.13;15.47;;;5.10;76.00;;;;;;5083312;27;46513;-68
2022/11/13 03:55:18;;;;;;;75.23;11.97;;;5.00;77.50;;;;;;5085187;27;46678;-69
2022/11/13 03:57:45;;;;;;;93.13;11.87;;;4.90;77.80;;;;;;5085361;27;46366;-67
2022/11/13 04:00:11;;;;;;;84.87;12.47;;;4.80;78.10;;;;;;5083466;27;46442;-67
2022/11/13 04:02:37;;;;;;;72.63;12.60;;;4.80;76.90;;;;;;5081654;27;46387;-66
2022/11/13 04:05:03;;;;;;;70.80;12.87;;;4.80;77.90;;;;;;5084727;27;46804;-67
2022/11/13 04:07:28;;;;;;;51.77;12.30;;;4.80;77.90;;;;;;5082915;27;46455;-68
2022/11/13 04:09:54;;;;;;;77.53;12.80;;;4.80;77.80;;;;;;5088051;27;46459;-70
2022/11/13 04:12:19;;;;;;;45.37;11.67;;;4.80;77.00;;;;;;5081636;27;46160;-67
2022/11/13 04:14:45;;;;;;;48.13;11.37;;;4.80;77.90;;;;;;5080805;27;46564;-68
2022/11/13 04:17:10;;;;;;;82.47;12.43;;;4.80;77.60;;;;;;5087844;27;46589;-67
2022/11/13 04:19:36;;;;;;;78.13;12.13;;;4.80;77.60;;;;;;5116671;27;46282;-67
2022/11/13 04:22:01;;;;;;;41.03;12.70;;;4.90;76.70;;;;;;5083822;27;46467;-67
2022/11/13 04:24:27;;;;;;;93.90;14.67;;;4.90;77.60;;;;;;5078586;27;47448;-69
2022/11/13 04:26:53;;;;;;;50.83;13.40;;;4.90;77.60;;;;;;5088961;27;46398;-66
2022/11/13 04:29:18;;;;;;;53.90;12.10;;;4.90;77.90;;;;;;5086884;27;46066;-67
2022/11/13 04:31:44;;;;;;;74.23;12.27;;;4.80;77.10;;;;;;5083275;27;46675;-68
2022/11/13 04:34:09;;;;;;;87.83;14.17;;;4.70;78.20;;;;;;5084467;27;46092;-68
2022/11/13 04:36:35;;;;;;;69.20;13.10;;;4.70;78.60;;;;;;5085680;27;46420;-67
2022/11/13 04:39:01;;;;;;;61.40;13.77;;;4.60;78.80;;;;;;5116680;27;45953;-67
2022/11/13 04:44:11;;;;;;;63.07;12.80;;;4.50;79.40;;;;;;5085659;27;46534;-70
2022/11/13 04:46:36;;;;;;;72.30;12.87;;;4.60;78.90;;;;;;5083474;27;46330;-67
2022/11/13 04:49:02;;;;;;;75.50;13.50;;;4.70;78.40;;;;;;5082386;27;46340;-67
2022/11/13 04:51:28;;;;;;;114.83;13.80;;;4.70;77.40;;;;;;5084027;27;46410;-69
2022/11/13 04:53:53;;;;;;;125.90;15.10;;;4.70;78.30;;;;;;5085578;27;46442;-67
2022/11/13 04:56:19;;;;;;;55.57;13.70;;;4.60;79.70;;;;;;5075773;27;46317;-67
2022/11/13 04:58:44;;;;;;;74.50;13.17;;;4.60;78.70;;;;;;5085950;27;46403;-66
2022/11/13 05:01:10;;;;;;;48.60;12.63;;;4.80;77.10;;;;;;5083907;27;47149;-68
2022/11/13 05:03:36;;;;;;;47.00;13.27;;;4.80;76.90;;;;;;5081690;27;47753;-68
2022/11/13 05:06:07;;;;;;;40.43;11.97;;;4.80;77.60;;;;;;5083011;27;46530;-69
2022/11/13 05:08:33;;;;;;;35.87;12.50;;;4.90;77.50;;;;;;5084211;27;46495;-71
2022/11/13 05:10:59;;;;;;;54.70;11.87;;;4.90;77.40;;;;;;5080972;27;46453;-69
2022/11/13 05:13:28;;;;;;;48.50;12.63;;;4.90;76.20;;;;;;5084199;27;46529;-67
2022/11/13 05:16:05;;;;;;;84.53;12.97;;;4.90;77.30;;;;;;5085368;27;46427;-70
2022/11/13 05:18:32;;;;;;;58.60;12.00;;;4.80;77.40;;;;;;5082070;27;46854;-67
2022/11/13 05:20:58;;;;;;;49.30;10.73;;;4.70;77.50;;;;;;5084095;27;46552;-67
2022/11/13 05:23:23;;;;;;;35.77;10.57;;;4.70;76.50;;;;;;5083823;27;47149;-67
2022/11/13 05:25:49;;;;;;;50.30;10.40;;;4.70;77.60;;;;;;5086301;27;46475;-67
2022/11/13 05:28:15;;;;;;;47.67;11.17;;;4.80;77.30;;;;;;5087613;27;46470;-67
2022/11/13 05:30:41;;;;;;;69.53;10.70;;;4.80;77.10;;;;;;5083536;27;46310;-66
2022/11/13 05:33:07;;;;;;;57.83;12.47;;;4.70;76.20;;;;;;5082060;27;46517;-66
2022/11/13 05:35:32;;;;;;;88.93;13.40;;;4.70;77.20;;;;;;5081186;27;46679;-68
2022/11/13 05:38:02;;;;;;;44.57;12.03;;;4.70;77.10;;;;;;5084581;27;46442;-68
2022/11/13 05:40:28;;;;;;;53.40;11.80;;;4.70;77.10;;;;;;5084188;27;46588;-69
2022/11/13 05:42:55;;;;;;;56.60;23.10;;;4.70;76.10;;;;;;5081121;27;47184;-67
2022/11/13 05:45:21;;;;;;;49.03;11.75;;;4.70;77.30;;;;;;5083632;27;46435;-69
2022/11/13 05:47:46;;;;;;;66.37;13.80;;;4.70;77.30;;;;;;5086622;27;46521;-69
2022/11/13 05:50:12;;;;;;;65.70;13.73;;;4.70;77.40;;;;;;5087362;27;46372;-67
2022/11/13 05:52:38;;;;;;;66.70;12.30;;;4.70;76.30;;;;;;5086872;27;46568;-68
2022/11/13 05:55:04;;;;;;;71.17;13.20;;;4.70;77.40;;;;;;5083160;27;46626;-67
2022/11/13 05:57:30;;;;;;;66.50;16.05;;;4.70;77.30;;;;;;5088020;27;46474;-69
2022/11/13 05:59:55;;;;;;;61.47;15.23;;;4.70;78.70;;;;;;5088294;27;46388;-67
2022/11/13 06:02:21;;;;;;;27.13;11.30;;;4.60;76.60;;;;;;5083649;27;46696;-67
2022/11/13 06:04:49;;;;;;;35.60;12.67;;;4.60;77.70;;;;;;5081089;27;46437;-68
2022/11/13 06:07:15;;;;;;;37.83;11.57;;;4.60;77.60;;;;;;5083536;27;46338;-69
2022/11/13 06:09:41;;;;;;;33.63;11.17;;;4.50;77.60;;;;;;5086996;27;46701;-67
2022/11/13 06:12:06;;;;;;;27.57;12.70;;;4.60;76.50;;;;;;5084228;27;46535;-68
2022/11/13 06:14:32;;;;;;;39.40;10.63;;;4.60;78.60;;;;;;5083733;27;46450;-70
2022/11/13 06:16:57;;;;;;;42.13;12.13;;;4.70;77.20;;;;;;5087523;27;46346;-69
2022/11/13 06:19:23;;;;;;;75.67;12.90;;;4.60;77.60;;;;;;5086195;27;46661;-67
2022/11/13 06:21:49;;;;;;;51.13;12.57;;;4.60;76.30;;;;;;5083426;27;49518;-68
2022/11/13 06:24:14;;;;;;;51.13;12.30;;;4.60;77.50;;;;;;5082658;27;46763;-67
2022/11/13 06:26:40;;;;;;;45.30;13.07;;;4.60;77.50;;;;;;5086669;27;46460;-70
2022/11/13 06:29:09;;;;;;;56.33;13.80;;;4.60;76.40;;;;;;5083144;27;46751;-69
2022/11/13 06:31:35;;;;;;;48.07;12.03;;;4.50;76.60;;;;;;5081745;27;47317;-70
2022/11/13 06:34:02;;;;;;;51.15;14.20;;;4.50;77.60;;;;;;5079275;27;46624;-67
2022/11/13 06:36:30;;;;;;;68.50;15.13;;;4.50;77.70;;;;;;5083006;27;46565;-68
2022/11/13 06:38:56;;;;;;;60.40;15.17;;;4.60;77.40;;;;;;5084974;27;46889;-69
2022/11/13 06:41:24;;;;;;;67.50;14.87;;;4.40;76.60;;;;;;5081570;27;46504;-67
2022/11/13 06:43:50;;;;;;;45.47;14.30;;;4.40;77.40;;;;;;5083841;27;46495;-68
2022/11/13 06:46:18;;;;;;;75.30;15.00;;;4.30;77.70;;;;;;5080536;27;45834;-72
2022/11/13 06:48:45;;;;;;;68.07;13.47;;;4.30;77.80;;;;;;5083119;27;46595;-67
2022/11/13 06:51:17;;;;;;;63.50;11.60;;;4.20;76.80;;;;;;5083943;27;47253;-68
2022/11/13 06:53:43;;;;;;;76.93;13.63;;;4.20;77.90;;;;;;5086205;27;46641;-67
2022/11/13 06:56:09;;;;;;;37.75;12.45;;;4.30;78.10;;;;;;5084349;27;46499;-68
2022/11/13 06:58:36;;;;;;;54.47;12.23;;;4.30;77.70;;;;;;5083769;27;46826;-68
2022/11/13 07:01:09;;;;;;;30.87;10.20;;;4.20;77.60;;;;;;5082768;27;47503;-67
2022/11/13 07:03:35;;;;;;;21.92;10.02;;;4.20;76.60;;;;;;5081628;27;45915;-67
2022/11/13 07:06:06;;;;;;;31.03;13.77;;;4.10;77.40;;;;;;5083187;27;46537;-70
2022/11/13 07:08:32;;;;;;;18.13;10.30;;;4.10;77.60;;;;;;5080451;27;46603;-67
2022/11/13 07:10:58;;;;;;;17.20;9.93;;;4.10;77.40;;;;;;5083761;27;47099;-68
2022/11/13 07:13:25;;;;;;;20.58;9.40;;;4.10;76.30;;;;;;5082640;27;46389;-67
2022/11/13 07:15:51;;;;;;;34.67;9.60;;;4.10;78.60;;;;;;5077842;27;46668;-66
2022/11/13 07:18:16;;;;;;;96.77;11.67;;;4.10;77.40;;;;;;5082913;27;46646;-68
2022/11/13 07:20:42;;;;;;;28.37;10.43;;;4.20;77.30;;;;;;5078825;27;47438;-66
2022/11/13 07:23:08;;;;;;;28.97;10.50;;;4.20;76.10;;;;;;5083278;27;46184;-64
2022/11/13 07:25:34;;;;;;;56.03;13.67;;;4.10;77.40;;;;;;5081203;27;46506;-67
2022/11/13 07:27:59;;;;;;;62.67;12.10;;;4.00;77.60;;;;;;5079014;27;46503;-63
2022/11/13 07:30:25;;;;;;;41.97;10.60;;;4.00;77.80;;;;;;5075228;27;47245;-65
2022/11/13 07:32:51;;;;;;;49.57;9.50;;;4.00;76.70;;;;;;5084815;27;45947;-67
2022/11/13 07:35:17;;;;;;;35.83;9.37;;;4.00;77.70;;;;;;5083554;27;46822;-68
2022/11/13 07:37:43;;;;;;;30.40;10.40;;;4.00;77.70;;;;;;5080425;27;46546;-67
2022/11/13 07:40:10;;;;;;;40.93;15.13;;;4.00;77.60;;;;;;5079472;27;47579;-67
2022/11/13 07:42:35;;;;;;;46.08;11.88;;;4.40;75.80;;;;;;5083189;27;46434;-69
2022/11/13 07:45:01;;;;;;;44.33;14.30;;;4.40;76.30;;;;;;5080862;27;46430;-69
2022/11/13 07:47:27;;;;;;;66.67;19.10;;;4.40;76.10;;;;;;5084339;27;46368;-67
2022/11/13 07:49:52;;;;;;;53.93;18.73;;;4.30;76.20;;;;;;5086715;27;46425;-66
2022/11/13 07:52:18;;;;;;;46.13;12.77;;;4.50;74.90;;;;;;5085455;27;46562;-70
2022/11/13 07:54:43;;;;;;;40.70;12.30;;;4.60;75.70;;;;;;5080148;27;46361;-66
2022/11/13 07:57:09;;;;;;;28.53;10.70;;;4.70;75.50;;;;;;5085555;27;46384;-66
2022/11/13 07:59:35;;;;;;;36.83;9.57;;;4.60;75.80;;;;;;5083891;27;47490;-68
2022/11/13 08:02:01;;;;;;;49.07;12.33;;;4.50;75.30;;;;;;5111668;27;46441;-71
2022/11/13 08:04:28;;;;;;;31.27;11.70;;;4.50;76.40;;;;;;5078545;27;46941;-67
2022/11/13 08:06:53;;;;;;;67.20;10.80;;;4.60;76.40;;;;;;5082702;27;46396;-67
2022/11/13 08:09:19;;;;;;;17.23;10.30;;;4.70;76.00;;;;;;5085670;27;46366;-68
2022/11/13 08:11:45;;;;;;;39.90;10.70;;;4.70;74.80;;;;;;5083931;27;46653;-66
2022/11/13 08:14:11;;;;;;;36.47;9.93;;;4.70;75.80;;;;;;5080191;27;46342;-66
2022/11/13 08:16:37;;;;;;;21.70;11.70;;;4.70;75.90;;;;;;5084255;27;46484;-68
2022/11/13 08:19:03;;;;;;;31.80;12.10;;;4.70;76.00;;;;;;5085495;27;46333;-67
2022/11/13 08:21:28;;;;;;;26.83;10.67;;;4.90;74.20;;;;;;5078401;27;46008;-70
2022/11/13 08:23:54;;;;;;;26.47;11.70;;;4.90;75.10;;;;;;5081307;27;46511;-69
2022/11/13 08:26:20;;;;;;;23.50;14.57;;;5.00;74.70;;;;;;5080716;27;46568;-66
2022/11/13 08:28:46;;;;;;;26.47;11.90;;;5.10;74.30;;;;;;5082915;27;47628;-68
2022/11/13 08:31:13;;;;;;;18.63;11.32;;;5.20;73.10;;;;;;5081894;27;46458;-68
2022/11/13 08:33:41;;;;;;;25.40;10.37;;;5.30;74.20;;;;;;5083109;27;46361;-67
2022/11/13 08:36:09;;;;;;;18.90;11.87;;;5.30;74.00;;;;;;5084363;27;46467;-69
2022/11/13 08:38:34;;;;;;;19.23;10.53;;;5.30;73.90;;;;;;5083127;27;46389;-66
2022/11/13 08:41:02;;;;;;;20.03;9.60;;;5.50;74.10;;;;;;5082869;27;46460;-67
2022/11/13 08:43:27;;;;;;;16.67;9.97;;;5.70;73.20;;;;;;5081226;27;46455;-69
2022/11/13 08:45:54;;;;;;;14.13;8.20;;;5.70;74.40;;;;;;5086419;27;46730;-67
2022/11/13 08:48:20;;;;;;;15.50;9.80;;;5.60;74.20;;;;;;5082311;27;46488;-69
2022/11/13 08:50:53;;;;;;;15.60;8.97;;;5.70;74.20;;;;;;5083091;27;46579;-67
2022/11/13 08:53:19;;;;;;;15.90;10.33;;;5.90;73.40;;;;;;5085027;27;46597;-67
2022/11/13 08:55:45;;;;;;;15.93;9.33;;;6.00;73.80;;;;;;5081474;27;46285;-68
2022/11/13 08:58:10;;;;;;;14.93;10.30;;;6.00;73.50;;;;;;5083866;27;46409;-67
2022/11/13 09:00:36;;;;;;;33.93;18.30;;;6.10;73.30;;;;;;5082312;27;46456;-66
2022/11/13 09:03:02;;;;;;;16.10;9.93;;;6.30;71.90;;;;;;5084420;27;46327;-67
2022/11/13 09:05:28;;;;;;;15.53;10.67;;;6.30;72.90;;;;;;5083562;27;46475;-67
2022/11/13 09:07:58;;;;;;;14.20;10.07;;;7.10;73.50;;;;;;5081053;27;47400;-68
2022/11/13 09:10:25;;;;;;;14.87;10.10;;;6.20;72.60;;;;;;5084480;27;46767;-68
2022/11/13 09:13:02;;;;;;;97.07;55.50;;;6.30;71.80;;;;;;5084916;27;46586;-67
2022/11/13 09:15:29;;;;;;;18.70;11.17;;;6.30;73.10;;;;;;5081935;27;45916;-68
2022/11/13 09:17:57;;;;;;;18.10;11.20;;;6.40;72.70;;;;;;5083319;27;48250;-67
2022/11/13 09:20:22;;;;;;;20.53;12.70;;;6.60;72.50;;;;;;5084902;27;46447;-69
2022/11/13 09:22:48;;;;;;;23.87;13.77;;;6.70;71.00;;;;;;5083743;27;46593;-67
2022/11/13 09:25:14;;;;;;;18.57;12.90;;;6.70;72.10;;;;;;5086540;27;46577;-68
2022/11/13 09:27:39;;;;;;;19.90;12.20;;;6.60;72.20;;;;;;5082186;27;47267;-64
2022/11/13 09:30:05;;;;;;;23.03;13.30;;;6.60;72.30;;;;;;5084869;27;46451;-64
2022/11/13 09:32:31;;;;;;;23.90;13.20;;;6.80;71.00;;;;;;5082070;27;46569;-66
2022/11/13 09:34:57;;;;;;;21.60;12.83;;;6.90;71.70;;;;;;5087183;27;46891;-66
2022/11/13 09:37:22;;;;;;;20.63;13.00;;;6.90;70.90;;;;;;5083211;27;46531;-69
2022/11/13 09:39:48;;;;;;;22.30;13.47;;;6.80;70.50;;;;;;5086705;27;46342;-69
2022/11/13 09:42:23;;;;;;;18.27;12.10;;;6.90;69.70;;;;;;5081429;27;45962;-67
2022/11/13 09:45:06;;;;;;;21.93;12.40;;;6.90;70.80;;;;;;5103527;27;46476;-66
2022/11/13 09:47:38;;;;;;;19.77;12.03;;;6.90;70.80;;;;;;5081823;27;47539;-66
2022/11/13 09:50:12;;;;;;;21.97;13.53;;;7.10;70.30;;;;;;5087408;27;46396;-69
2022/11/13 09:52:41;;;;;;;22.50;12.70;;;7.30;68.40;;;;;;5083100;27;46371;-67
2022/11/13 09:55:17;;;;;;;21.47;13.17;;;7.40;69.10;;;;;;5085439;27;46622;-68
2022/11/13 09:57:51;;;;;;;21.07;12.37;;;7.40;67.80;;;;;;5079711;27;47437;-68
2022/11/13 10:00:19;;;;;;;19.07;11.40;;;7.40;68.70;;;;;;5086890;27;46433;-68
2022/11/13 10:03:23;;;;;;;25.60;13.70;;;7.40;66.90;;;;;;5078976;27;46591;-67
2022/11/13 10:06:13;;;;;;;23.40;13.43;;;7.20;68.20;;;;;;5082542;27;46839;-67
2022/11/13 10:09:07;;;;;;;29.53;18.10;;;6.20;68.40;;;;;;5083632;27;48519;-68
2022/11/13 10:11:40;;;;;;;20.50;12.37;;;7.30;67.30;;;;;;5084664;27;46718;-68
2022/11/13 10:14:35;;;;;;;28.97;17.10;;;7.30;68.20;;;;;;5077814;27;46940;-68
2022/11/13 10:17:10;;;;;;;20.40;11.63;;;7.40;68.00;;;;;;5087328;27;46472;-70
2022/11/13 10:19:58;;;;;;;22.90;12.10;;;7.50;67.90;;;;;;5086185;27;47643;-69
2022/11/13 10:22:28;;;;;;;19.30;11.00;;;7.50;65.90;;;;;;5081799;27;46761;-69
2022/11/13 10:25:00;;;;;;;21.57;11.60;;;7.50;67.00;;;;;;5080672;27;46191;-70
2022/11/13 10:27:26;;;;;;;15.83;9.00;;;7.50;67.60;;;;;;5082008;27;46661;-68
2022/11/13 10:29:52;;;;;;;20.27;11.03;;;7.40;67.70;;;;;;5085368;27;47413;-70
2022/11/13 10:32:29;;;;;;;16.27;9.77;;;7.00;67.00;;;;;;5081669;27;46737;-68
2022/11/13 10:35:14;;;;;;;36.63;19.53;;;7.00;67.60;;;;;;5088384;27;46529;-73
2022/11/13 10:37:55;;;;;;;17.47;10.73;;;7.00;68.00;;;;;;5079764;27;46781;-69
2022/11/13 10:40:25;;;;;;;17.50;10.20;;;7.10;67.20;;;;;;5084271;27;47585;-69
2022/11/13 10:42:51;;;;;;;22.77;12.17;;;7.10;67.00;;;;;;5082025;27;46282;-69
2022/11/13 10:45:19;;;;;;;17.60;11.40;;;7.20;67.80;;;;;;5079755;27;46514;-68
2022/11/13 10:47:50;;;;;;;19.43;12.07;;;7.40;67.10;;;;;;5087113;27;46358;-69
2022/11/13 10:50:20;;;;;;;18.83;11.33;;;7.50;66.50;;;;;;5085975;27;48002;-68
2022/11/13 10:52:49;;;;;;;17.20;10.23;;;7.60;65.20;;;;;;5081446;27;46383;-68
2022/11/13 10:55:32;;;;;;;13.97;9.77;;;7.60;66.30;;;;;;5085348;27;46705;-70
2022/11/13 10:58:00;;;;;;;17.50;11.20;;;7.80;66.00;;;;;;5084336;27;46460;-68
2022/11/13 11:00:31;;;;;;;18.57;11.60;;;8.00;65.70;;;;;;5085075;27;47171;-71
2022/11/13 11:02:56;;;;;;;19.97;12.07;;;8.10;63.90;;;;;;5077363;27;46377;-69
2022/11/13 11:05:23;;;;;;;22.23;13.50;;;8.20;64.90;;;;;;5082694;27;46410;-73
2022/11/13 11:07:50;;;;;;;23.53;13.77;;;8.10;64.80;;;;;;5082143;27;46439;-71
2022/11/13 11:10:33;;;;;;;23.37;12.57;;;8.00;65.70;;;;;;5082126;27;47703;-70
2022/11/13 11:13:10;;;;;;;20.30;13.27;;;7.90;65.10;;;;;;5076888;27;47316;-68
2022/11/13 11:15:44;;;;;;;26.03;12.80;;;7.80;66.10;;;;;;5082037;27;46532;-69
2022/11/13 11:18:18;;;;;;;158.40;79.60;;;7.80;66.30;;;;;;5087169;27;46562;-68
2022/11/13 11:20:50;;;;;;;21.07;13.37;;;8.00;66.10;;;;;;5081815;27;47377;-69
2022/11/13 11:23:43;;;;;;;23.30;13.30;;;8.10;64.00;;;;;;5083464;27;46486;-70
2022/11/13 11:26:14;;;;;;;22.73;13.30;;;8.10;64.70;;;;;;5083743;27;46475;-71
2022/11/13 11:29:24;;;;;;;20.80;12.90;;;8.10;64.40;;;;;;5082166;27;45931;-67
2022/11/13 11:31:55;;;;;;;21.73;13.30;;;8.10;63.30;;;;;;5073999;27;46978;-68
2022/11/13 11:34:42;;;;;;;21.50;13.67;;;8.10;64.50;;;;;;5083138;27;46518;-67
2022/11/13 11:37:18;;;;;;;18.50;12.10;;;8.00;64.40;;;;;;5081998;27;46731;-68
2022/11/13 11:39:59;;;;;;;21.43;12.07;;;8.00;64.70;;;;;;5081509;27;46591;-68
2022/11/13 11:42:46;;;;;;;22.20;12.23;;;7.90;64.30;;;;;;5084072;27;49493;-68
2022/11/13 11:45:34;;;;;;;21.20;12.90;;;7.80;65.20;;;;;;5079712;27;46316;-68
2022/11/13 11:48:03;;;;;;;20.30;12.23;;;8.00;65.20;;;;;;5084244;27;46435;-69
2022/11/13 11:50:37;;;;;;;20.10;12.43;;;8.00;64.60;;;;;;5085917;27;46673;-68
2022/11/13 11:53:55;;;;;;;31.83;16.30;;;8.20;62.90;;;;;;5072899;27;48081;-68
2022/11/13 11:56:39;;;;;;;27.33;14.83;;;8.30;64.00;;;;;;5085498;27;46829;-68
2022/11/13 11:59:11;;;;;;;24.73;14.33;;;8.40;63.20;;;;;;5086187;27;46735;-67
2022/11/13 12:02:05;;;;;;;30.97;17.23;;;8.60;61.40;;;;;;5080300;27;46734;-68
2022/11/13 12:04:39;;;;;;;22.33;13.80;;;8.60;62.30;;;;;;5083424;27;46456;-68
2022/11/13 12:07:27;;;;;;;21.00;13.70;;;8.50;62.60;;;;;;5083080;27;46354;-68
2022/11/13 12:10:21;;;;;;;24.80;14.10;;;8.50;62.60;;;;;;5086158;27;46433;-69
2022/11/13 12:12:56;;;;;;;17.33;11.37;;;8.60;61.60;;;;;;5084740;27;46265;-68
2022/11/13 12:15:47;;;;;;;21.63;10.80;;;8.60;62.40;;;;;;5082460;27;46435;-69
2022/11/13 12:18:40;;;;;;;18.47;11.93;;;8.60;62.40;;;;;;5079663;27;46595;-71
2022/11/13 12:21:11;;;;;;;22.13;10.90;;;8.60;61.60;;;;;;5086637;27;46423;-68
2022/11/13 12:24:08;;;;;;;21.83;13.20;;;8.50;61.40;;;;;;5080231;27;46369;-72
2022/11/13 12:26:50;;;;;;;22.60;13.77;;;8.40;62.80;;;;;;5086622;27;46756;-67
2022/11/13 12:29:38;;;;;;;22.40;13.40;;;8.10;62.80;;;;;;5085364;27;46456;-70
2022/11/13 12:32:21;;;;;;;24.47;14.70;;;8.00;62.60;;;;;;5084915;27;46337;-70
2022/11/13 12:34:52;;;;;;;23.00;13.70;;;7.90;63.60;;;;;;5084668;27;46933;-66
2022/11/13 12:37:50;;;;;;;24.47;14.40;;;7.60;64.80;;;;;;5085379;27;48071;-68
2022/11/13 12:40:47;;;;;;;26.27;13.90;;;7.50;64.80;;;;;;5054132;27;46453;-69
2022/11/13 12:43:43;;;;;;;28.23;13.83;;;7.70;63.60;;;;;;5077641;27;46577;-70
2022/11/13 12:46:11;;;;;;;22.43;13.93;;;7.70;64.40;;;;;;5080536;27;46599;-68
2022/11/13 12:48:47;;;;;;;20.90;12.80;;;7.70;64.50;;;;;;5114454;27;47955;-67
2022/11/13 12:51:17;;;;;;;34.03;19.63;;;7.60;63.70;;;;;;5079254;27;46783;-69